createdAt,value
2018-03-28T00:00:24.872Z," 8.20"
2018-03-28T00:05:20.964Z," 8.00"
2018-03-28T00:10:20.675Z," 8.12"
2018-03-28T00:15:20.296Z," 8.12"
2018-03-28T00:20:19.012Z," 8.09"
2018-03-28T00:25:14.972Z," 8.00"
2018-03-28T00:30:14.644Z," 8.13"
2018-03-28T00:35:13.792Z," 8.00"
2018-03-28T00:40:13.573Z," 8.00"
2018-03-28T00:45:10.013Z," 7.95"
2018-03-28T00:50:10.633Z," 7.87"
2018-03-28T00:55:05.452Z," 7.75"
2018-03-28T01:00:01.439Z," 7.79"
2018-03-28T01:05:01.116Z," 7.72"
2018-03-28T01:09:59.834Z," 7.53"
2018-03-28T01:14:58.514Z," 7.58"
2018-03-28T01:19:58.964Z," 7.63"
2018-03-28T01:24:53.482Z," 7.51"
2018-03-28T01:29:50.232Z," 7.39"
2018-03-28T01:34:46.014Z," 7.48"
2018-03-28T01:39:46.976Z," 7.58"
2018-03-28T01:44:42.541Z," 7.39"
2018-03-28T01:49:39.192Z," 7.58"
2018-03-28T01:54:35.335Z," 7.50"
2018-03-28T01:59:31.948Z," 7.48"
2018-03-28T02:04:28.579Z," 7.45"
2018-03-28T02:09:25.177Z," 7.56"
2018-03-28T02:14:21.556Z," 7.50"
2018-03-28T02:19:17.741Z," 7.57"
2018-03-28T02:24:18.758Z," 7.56"
2018-03-28T02:29:17.317Z," 7.70"
2018-03-28T02:34:17.358Z," 7.56"
2018-03-28T02:39:13.048Z," 7.57"
2018-03-28T02:44:12.305Z," 7.69"
2018-03-28T02:49:07.100Z," 7.56"
2018-03-28T02:54:04.290Z," 7.75"
2018-03-28T02:59:01.000Z," 7.69"
2018-03-28T03:04:00.301Z," 7.73"
2018-03-28T03:08:59.540Z," 7.60"
2018-03-28T03:13:54.398Z," 7.61"
2018-03-28T03:18:55.081Z," 7.69"
2018-03-28T03:23:50.220Z," 7.70"
2018-03-28T03:28:49.982Z," 7.67"
2018-03-28T03:33:48.410Z," 7.54"
2018-03-28T03:38:44.462Z," 7.51"
2018-03-28T03:43:44.800Z," 7.32"
2018-03-28T03:48:43.530Z," 7.60"
2018-03-28T03:53:39.349Z," 7.61"
2018-03-28T03:58:39.062Z," 7.66"
2018-03-28T04:03:33.976Z," 7.60"
2018-03-28T04:08:29.641Z," 7.66"
2018-03-28T04:13:30.202Z," 7.53"
2018-03-28T04:18:24.911Z," 7.45"
2018-03-28T04:23:21.009Z," 7.45"
2018-03-28T04:28:20.705Z," 7.40"
2018-03-28T04:33:19.823Z," 7.57"
2018-03-28T04:38:15.440Z," 7.56"
2018-03-28T04:43:12.047Z," 7.58"
2018-03-28T04:48:11.495Z," 7.69"
2018-03-28T04:53:11.624Z," 7.70"
2018-03-28T04:58:11.205Z," 7.60"
2018-03-28T05:03:06.984Z," 7.72"
2018-03-28T05:08:03.523Z," 7.58"
2018-03-28T05:13:04.925Z," 7.51"
2018-03-28T05:18:04.320Z," 7.66"
2018-03-28T05:23:02.935Z," 7.60"
2018-03-28T05:28:01.725Z," 7.56"
2018-03-28T05:33:02.506Z," 7.58"
2018-03-28T05:38:02.048Z," 7.53"
2018-03-28T05:43:00.698Z," 7.63"
2018-03-28T05:47:59.439Z," 7.72"
2018-03-28T05:52:54.483Z," 7.72"
2018-03-28T05:57:54.502Z," 7.69"
2018-03-28T06:02:53.987Z," 7.72"
2018-03-28T06:07:48.821Z," 7.69"
2018-03-28T06:12:49.440Z," 7.70"
2018-03-28T06:17:48.804Z," 7.57"
2018-03-28T06:22:47.850Z," 7.70"
2018-03-28T06:27:43.483Z," 7.70"
2018-03-28T06:32:43.433Z," 7.77"
2018-03-28T06:37:43.595Z," 7.76"
2018-03-28T06:42:42.174Z," 7.80"
2018-03-28T06:47:41.420Z," 7.90"
2018-03-28T06:52:36.526Z," 7.87"
2018-03-28T06:57:37.277Z," 7.94"
2018-03-28T07:02:37.069Z," 7.95"
2018-03-28T07:07:32.512Z," 7.94"
2018-03-28T07:12:32.062Z," 7.97"
2018-03-28T07:17:30.903Z," 8.01"
2018-03-28T07:22:30.792Z," 7.98"
2018-03-28T07:27:25.545Z," 8.20"
2018-03-28T07:32:21.401Z," 8.19"
2018-03-28T07:37:21.195Z," 8.16"
2018-03-28T07:42:16.411Z," 8.20"
2018-03-28T07:47:12.250Z," 8.19"
2018-03-28T07:52:09.003Z," 8.30"
2018-03-28T07:57:04.428Z," 8.37"
2018-03-28T08:02:05.353Z," 8.42"
2018-03-28T08:07:03.991Z," 8.44"
2018-03-28T08:12:03.067Z," 8.60"
2018-03-28T08:17:02.426Z," 8.84"
2018-03-28T08:21:58.538Z," 8.95"
2018-03-28T08:26:58.474Z," 9.39"
2018-03-28T08:31:57.860Z," 9.58"
2018-03-28T08:36:53.802Z," 9.72"
2018-03-28T08:41:50.947Z," 9.92"
2018-03-28T08:46:47.749Z,10.09
2018-03-28T08:51:44.264Z," 9.99"
2018-03-28T08:56:44.806Z,10.33
2018-03-28T09:01:40.801Z,10.33
2018-03-28T09:06:41.785Z,10.56
2018-03-28T09:11:38.031Z,10.87
2018-03-28T09:16:33.515Z,10.57
2018-03-28T09:21:33.193Z,10.60
2018-03-28T09:26:28.211Z,10.61
2018-03-28T09:31:28.001Z,10.61
2018-03-28T09:36:27.871Z,10.61
2018-03-28T09:41:23.653Z,10.63
2018-03-28T09:46:22.875Z,10.49
2018-03-28T09:51:18.856Z,10.75
2018-03-28T09:56:18.687Z,10.74
2018-03-28T10:01:13.904Z,10.94
2018-03-28T10:06:13.908Z,11.07
2018-03-28T10:11:09.463Z,11.26
2018-03-28T10:16:05.229Z,11.26
2018-03-28T10:21:00.896Z,11.15
2018-03-28T10:25:56.620Z,11.19
2018-03-28T10:30:53.829Z,11.04
2018-03-28T10:35:49.844Z,10.89
2018-03-28T10:40:45.602Z,10.93
2018-03-28T10:45:41.791Z,11.02
2018-03-28T10:50:42.460Z,10.97
2018-03-28T10:55:37.023Z,10.97
2018-03-28T11:00:37.874Z,11.08
2018-03-28T11:05:32.540Z,11.17
2018-03-28T11:10:32.259Z,10.99
2018-03-28T11:15:28.175Z,11.02
2018-03-28T11:20:27.740Z,11.10
2018-03-28T11:25:22.562Z,10.99
2018-03-28T11:30:18.301Z,10.94
2018-03-28T11:35:18.818Z,10.87
2018-03-28T11:40:17.780Z,10.86
2018-03-28T11:45:17.682Z,10.86
2018-03-28T11:50:16.298Z,10.74
2018-03-28T11:55:11.701Z,10.68
2018-03-28T12:00:10.942Z,10.60
2018-03-28T12:05:06.959Z,10.69
2018-03-28T12:10:03.530Z,10.72
2018-03-28T12:15:03.883Z,10.78
2018-03-28T12:19:58.451Z,10.71
2018-03-28T12:24:59.404Z,10.67
2018-03-28T12:29:53.804Z,10.81
2018-03-28T12:34:53.681Z,10.84
2018-03-28T12:39:52.673Z,10.75
2018-03-28T12:44:51.352Z,10.60
2018-03-28T12:49:46.219Z,10.56
2018-03-28T12:54:41.862Z,10.41
2018-03-28T12:59:37.653Z,10.37
2018-03-28T13:04:38.912Z,10.16
2018-03-28T13:09:33.674Z,10.16
2018-03-28T13:14:33.114Z," 9.98"
2018-03-28T13:19:32.657Z," 9.97"
2018-03-28T13:24:31.315Z," 9.82"
2018-03-28T13:29:32.374Z," 9.77"
2018-03-28T13:34:30.275Z," 9.69"
2018-03-28T13:39:25.543Z," 9.43"
2018-03-28T13:44:21.557Z," 9.40"
2018-03-28T13:49:17.334Z," 9.29"
2018-03-28T13:54:13.001Z," 9.06"
2018-03-28T13:59:14.012Z," 9.03"
2018-03-28T14:04:09.772Z," 9.18"
2018-03-28T14:09:05.055Z," 9.18"
2018-03-28T14:14:05.987Z," 9.02"
2018-03-28T14:19:00.930Z," 9.04"
2018-03-28T14:23:56.823Z," 9.16"
2018-03-28T14:28:52.614Z," 9.22"
2018-03-28T14:33:53.185Z," 9.19"
2018-03-28T14:38:52.098Z," 9.19"
2018-03-28T14:43:50.861Z," 9.02"
2018-03-28T14:48:46.951Z," 9.02"
2018-03-28T14:53:47.433Z," 9.08"
2018-03-28T14:58:46.139Z," 9.00"
2018-03-28T15:03:42.100Z," 8.99"
2018-03-28T15:08:37.757Z," 8.99"
2018-03-28T15:13:38.489Z," 9.04"
2018-03-28T15:18:37.189Z," 9.04"
2018-03-28T15:23:32.054Z," 9.10"
2018-03-28T15:28:32.710Z," 8.87"
2018-03-28T15:33:31.436Z," 9.02"
2018-03-28T15:38:26.976Z," 8.97"
2018-03-28T15:43:27.898Z," 8.85"
2018-03-28T15:48:22.481Z," 8.69"
2018-03-28T15:53:19.294Z," 8.67"
2018-03-28T15:58:14.826Z," 8.71"
2018-03-28T16:03:15.643Z," 8.73"
2018-03-28T16:08:10.520Z," 8.55"
2018-03-28T16:13:12.133Z," 8.78"
2018-03-28T16:18:07.011Z," 8.63"
2018-03-28T16:23:07.736Z," 8.69"
2018-03-28T16:28:07.535Z," 8.78"
2018-03-28T16:33:07.489Z," 8.81"
2018-03-28T16:38:06.561Z," 8.64"
2018-03-28T16:43:03.153Z," 8.79"
2018-03-28T16:48:02.739Z," 8.88"
2018-03-28T16:52:57.879Z," 8.91"
2018-03-28T16:57:53.552Z," 8.91"
2018-03-28T17:02:53.535Z," 8.85"
2018-03-28T17:07:48.764Z," 8.87"
2018-03-28T17:12:44.795Z," 8.89"
2018-03-28T17:17:41.470Z," 8.78"
2018-03-28T17:22:40.752Z," 8.64"
2018-03-28T17:27:40.793Z," 8.61"
2018-03-28T17:32:35.434Z," 8.64"
2018-03-28T17:37:36.313Z," 8.61"
2018-03-28T17:42:31.696Z," 8.49"
2018-03-28T17:47:27.396Z," 8.56"
2018-03-28T17:52:28.813Z," 8.51"
2018-03-28T17:57:27.943Z," 8.48"
2018-03-28T18:02:27.825Z," 8.38"
2018-03-28T18:07:27.994Z," 8.48"
2018-03-28T18:12:27.573Z," 8.34"
2018-03-28T18:17:28.003Z," 8.20"
2018-03-28T18:22:23.603Z," 8.13"
2018-03-28T18:27:23.836Z," 8.18"
2018-03-28T18:32:19.526Z," 7.98"
2018-03-28T18:37:21.816Z," 8.03"
2018-03-28T18:42:23.893Z," 7.98"
2018-03-28T18:47:18.993Z," 7.80"
2018-03-28T18:52:20.375Z," 7.79"
2018-03-28T18:57:16.067Z," 7.66"
2018-03-28T19:02:14.056Z," 7.60"
2018-03-28T19:07:14.943Z," 7.51"
2018-03-28T19:12:16.452Z," 7.50"
2018-03-28T19:17:18.705Z," 7.50"
2018-03-28T19:27:25.966Z," 7.38"
2018-03-28T19:32:23.102Z," 7.57"
2018-03-28T19:37:19.461Z," 7.57"
2018-03-28T19:42:16.068Z," 7.69"
2018-03-28T19:47:15.519Z," 7.69"
2018-03-28T19:52:16.680Z," 7.66"
2018-03-28T19:57:12.999Z," 7.75"
2018-03-28T20:02:14.816Z," 7.58"
2018-03-28T20:07:09.562Z," 7.50"
2018-03-28T20:12:05.242Z," 7.43"
2018-03-28T20:17:05.194Z," 7.42"
2018-03-28T20:22:04.699Z," 7.43"
2018-03-28T20:27:00.416Z," 7.29"
2018-03-28T20:32:02.004Z," 7.17"
2018-03-28T20:37:01.422Z," 7.03"
2018-03-28T20:41:58.198Z," 7.03"
2018-03-28T20:46:53.519Z," 6.92"
2018-03-28T20:51:53.339Z," 6.75"
2018-03-28T20:56:48.535Z," 6.77"
2018-03-28T21:01:48.376Z," 6.64"
2018-03-28T21:06:47.293Z," 6.59"
2018-03-28T21:11:42.494Z," 6.42"
2018-03-28T21:16:42.177Z," 6.41"
2018-03-28T21:21:37.193Z," 6.38"
2018-03-28T21:31:43.128Z," 6.14"
2018-03-28T21:36:42.647Z," 6.16"
2018-03-28T21:41:37.674Z," 5.94"
2018-03-28T21:46:38.274Z," 5.82"
2018-03-28T21:51:33.867Z," 5.80"
2018-03-28T21:56:34.418Z," 5.79"
2018-03-28T22:01:33.000Z," 5.72"
2018-03-28T22:06:31.652Z," 5.71"
2018-03-28T22:11:30.223Z," 5.84"
2018-03-28T22:16:25.995Z," 5.61"
2018-03-28T22:21:22.377Z," 5.43"
2018-03-28T22:26:19.213Z," 5.54"
2018-03-28T22:31:19.973Z," 5.57"
2018-03-28T22:36:16.039Z," 5.51"
2018-03-28T22:41:13.752Z," 5.41"
2018-03-28T22:46:13.956Z," 5.25"
2018-03-28T22:51:08.954Z," 5.32"
2018-03-28T22:56:05.590Z," 5.26"
2018-03-28T23:01:06.086Z," 5.21"
2018-03-28T23:06:01.274Z," 5.26"
2018-03-28T23:10:57.169Z," 5.38"
2018-03-28T23:15:57.714Z," 5.26"
2018-03-28T23:20:58.742Z," 5.21"
2018-03-28T23:25:57.710Z," 5.23"
2018-03-28T23:30:53.868Z," 5.15"
2018-03-28T23:35:54.140Z," 4.96"
2018-03-28T23:40:49.973Z," 5.14"
2018-03-28T23:45:49.377Z," 4.96"
2018-03-28T23:50:49.759Z," 5.05"
2018-03-28T23:55:45.250Z," 4.89"
